Time;durP1;ratioP1;P1;durP2;ratioP2;P2;SDS_P1;SDS_P2;PMS_P1;PMS_P2;Temp;Humidity;BMP_temperature;BMP_pressure;BME280_temperature;BME280_humidity;BME280_pressure;Samples;Min_cycle;Max_cycle;Signal;HPM_P1;HPM_P2
2022/10/18 00:00:30;;;;;;;26.15;17.90;;;17.10;90.70;;;;;;5021459;28;20461;-66
2022/10/18 00:02:56;;;;;;;24.85;17.80;;;17.10;90.70;;;;;;5024497;28;20022;-67
2022/10/18 00:05:22;;;;;;;26.08;18.15;;;17.20;90.70;;;;;;5031532;28;20038;-67
2022/10/18 00:07:47;;;;;;;24.30;16.98;;;17.10;90.70;;;;;;5031096;28;20029;-66
2022/10/18 00:10:13;;;;;;;23.95;17.98;;;17.10;90.70;;;;;;5026037;28;20393;-66
2022/10/18 00:12:39;;;;;;;24.35;17.52;;;17.10;90.70;;;;;;5010295;28;20029;-67
2022/10/18 00:15:06;;;;;;;22.73;17.90;;;17.10;90.70;;;;;;5024090;28;20339;-67
2022/10/18 00:17:34;;;;;;;24.63;18.58;;;17.20;90.70;;;;;;5026413;28;20053;-68
2022/10/18 00:20:00;;;;;;;27.65;18.00;;;17.20;90.70;;;;;;5025162;28;20048;-66
2022/10/18 00:22:25;;;;;;;24.90;17.08;;;17.20;90.70;;;;;;5032071;28;20121;-66
2022/10/18 00:24:51;;;;;;;27.45;16.77;;;17.20;90.70;;;;;;5033826;28;20033;-66
2022/10/18 00:27:17;;;;;;;22.05;16.73;;;17.20;90.70;;;;;;5027709;28;20026;-66
2022/10/18 00:29:43;;;;;;;22.08;17.05;;;17.20;90.70;;;;;;5021133;28;20017;-67
2022/10/18 00:32:10;;;;;;;26.25;16.63;;;17.10;90.70;;;;;;5025753;28;20037;-67
2022/10/18 00:34:37;;;;;;;23.13;17.70;;;17.20;90.80;;;;;;5029176;28;20458;-66
2022/10/18 00:37:03;;;;;;;22.20;16.67;;;17.10;90.70;;;;;;5021859;28;20017;-66
2022/10/18 00:39:28;;;;;;;23.00;17.85;;;17.20;90.80;;;;;;5030487;28;20028;-66
2022/10/18 00:41:54;;;;;;;23.67;16.77;;;17.20;90.80;;;;;;5032899;28;20022;-66
2022/10/18 00:44:20;;;;;;;24.20;16.42;;;17.20;90.80;;;;;;5017564;28;20040;-66
2022/10/18 00:46:47;;;;;;;22.00;16.55;;;17.20;90.80;;;;;;5014490;28;20038;-66
2022/10/18 00:49:17;;;;;;;21.80;16.08;;;17.10;90.70;;;;;;5027407;28;20425;-66
2022/10/18 00:51:58;;;;;;;25.45;16.02;;;17.20;90.80;;;;;;5032824;28;20064;-66
2022/10/18 00:54:24;;;;;;;25.85;16.08;;;17.20;90.80;;;;;;5029065;28;20044;-66
2022/10/18 00:56:50;;;;;;;21.75;15.45;;;17.20;90.80;;;;;;5029188;28;20369;-66
2022/10/18 00:59:17;;;;;;;22.55;15.98;;;17.10;90.70;;;;;;5022555;28;20042;-67
2022/10/18 01:01:43;;;;;;;22.60;15.75;;;17.20;90.80;;;;;;5025817;28;20045;-66
2022/10/18 01:04:10;;;;;;;19.55;14.73;;;17.10;90.70;;;;;;5012646;28;20066;-67
2022/10/18 01:07:04;;;;;;;23.23;16.15;;;17.10;90.70;;;;;;5010996;28;20354;-66
2022/10/18 01:10:01;;;;;;;22.05;15.43;;;17.10;90.70;;;;;;5014724;28;20030;-67
2022/10/18 01:12:42;;;;;;;21.98;15.40;;;17.10;90.70;;;;;;5015975;28;20032;-66
2022/10/18 01:15:30;;;;;;;21.90;15.63;;;17.10;90.80;;;;;;5016784;28;20046;-66
2022/10/18 01:18:14;;;;;;;19.33;15.30;;;17.10;90.80;;;;;;5017350;28;20470;-67
2022/10/18 01:20:58;;;;;;;18.80;13.95;;;17.10;90.70;;;;;;5015198;28;20034;-67
2022/10/18 01:23:56;;;;;;;21.67;15.63;;;17.10;90.70;;;;;;5016513;28;20526;-65
2022/10/18 01:26:43;;;;;;;22.52;14.98;;;17.10;90.70;;;;;;5016474;28;20038;-65
2022/10/18 01:29:35;;;;;;;23.45;16.90;;;17.10;90.70;;;;;;5017114;28;20432;-66
2022/10/18 01:32:11;;;;;;;24.95;15.23;;;17.10;90.80;;;;;;5013818;28;20041;-66
2022/10/18 01:34:39;;;;;;;26.50;17.27;;;17.10;90.80;;;;;;5015349;28;20065;-66
2022/10/18 01:37:10;;;;;;;25.65;17.50;;;17.10;90.80;;;;;;5014597;28;20030;-66
2022/10/18 01:39:39;;;;;;;23.75;16.80;;;17.10;90.80;;;;;;5012540;28;20049;-66
2022/10/18 01:42:08;;;;;;;24.92;17.63;;;17.10;90.80;;;;;;5013975;28;20489;-66
2022/10/18 01:44:36;;;;;;;23.33;16.27;;;17.10;90.80;;;;;;5015978;28;20092;-66
2022/10/18 01:47:04;;;;;;;25.67;16.92;;;17.00;90.80;;;;;;5011946;28;20058;-66
2022/10/18 01:49:32;;;;;;;22.58;17.05;;;17.10;90.80;;;;;;5015600;28;20041;-66
2022/10/18 01:51:58;;;;;;;24.00;16.50;;;17.00;90.80;;;;;;5015902;28;20033;-66
2022/10/18 01:54:32;;;;;;;25.70;16.52;;;17.00;90.80;;;;;;5014841;28;20036;-66
2022/10/18 01:57:12;;;;;;;22.85;16.15;;;17.00;90.80;;;;;;5015272;28;20045;-66
2022/10/18 02:00:00;;;;;;;24.88;15.82;;;17.00;90.80;;;;;;5016499;28;20026;-66
2022/10/18 02:02:35;;;;;;;21.90;15.20;;;17.00;90.80;;;;;;5015859;28;20366;-66
2022/10/18 02:05:15;;;;;;;26.33;16.58;;;17.00;90.80;;;;;;5015751;28;20030;-66
2022/10/18 02:07:47;;;;;;;22.10;16.83;;;17.00;90.80;;;;;;5016537;28;20395;-66
2022/10/18 02:10:20;;;;;;;22.33;16.58;;;17.00;90.80;;;;;;5014696;28;20095;-66
2022/10/18 02:12:48;;;;;;;24.98;17.63;;;17.00;90.80;;;;;;5025990;28;20053;-66
2022/10/18 02:15:19;;;;;;;23.55;16.85;;;17.00;90.80;;;;;;5032513;28;20053;-66
2022/10/18 02:17:46;;;;;;;22.15;15.48;;;17.00;90.80;;;;;;5028778;28;20395;-66
2022/10/18 02:20:13;;;;;;;23.33;16.83;;;17.00;90.80;;;;;;5020671;28;20040;-66
2022/10/18 02:22:41;;;;;;;22.52;16.65;;;17.00;90.80;;;;;;5015190;28;20026;-66
2022/10/18 02:25:12;;;;;;;22.75;16.60;;;17.00;90.80;;;;;;5021271;28;20495;-66
2022/10/18 02:27:38;;;;;;;22.77;15.82;;;17.00;90.80;;;;;;5029369;28;20029;-66
2022/10/18 02:30:04;;;;;;;23.45;16.17;;;17.00;90.80;;;;;;5018415;28;20028;-66
2022/10/18 02:33:17;;;;;;;22.88;16.65;;;17.00;90.80;;;;;;5016081;28;20504;-66
2022/10/18 02:35:48;;;;;;;24.77;15.60;;;17.00;90.70;;;;;;5011499;28;20041;-66
2022/10/18 02:38:16;;;;;;;20.30;15.75;;;17.00;90.80;;;;;;5014159;28;20041;-66
2022/10/18 02:40:42;;;;;;;23.95;16.55;;;17.00;90.80;;;;;;5014223;28;20052;-66
2022/10/18 02:43:08;;;;;;;23.92;17.40;;;17.00;90.80;;;;;;5014749;28;20385;-66
2022/10/18 02:45:34;;;;;;;22.85;16.08;;;16.90;90.80;;;;;;5030215;28;20401;-67
2022/10/18 02:47:59;;;;;;;23.38;17.45;;;17.00;90.80;;;;;;5012694;28;20378;-66
2022/10/18 02:50:25;;;;;;;23.65;17.10;;;17.00;90.80;;;;;;5033431;28;20458;-66
2022/10/18 02:52:51;;;;;;;25.15;17.63;;;16.90;90.70;;;;;;5040937;28;20030;-67
2022/10/18 02:55:17;;;;;;;25.60;17.48;;;16.90;90.70;;;;;;5027836;28;20042;-66
2022/10/18 02:57:42;;;;;;;26.42;18.55;;;16.90;90.70;;;;;;5026574;28;20047;-66
2022/10/18 03:00:09;;;;;;;25.85;17.80;;;16.90;90.70;;;;;;5029339;28;20026;-67
2022/10/18 03:02:34;;;;;;;27.88;19.10;;;16.90;90.70;;;;;;5028683;28;20053;-66
2022/10/18 03:05:00;;;;;;;28.85;18.67;;;16.90;90.70;;;;;;5028228;28;20072;-67
2022/10/18 03:07:26;;;;;;;25.20;17.38;;;16.90;90.70;;;;;;5010033;28;20040;-66
2022/10/18 03:09:51;;;;;;;23.15;17.63;;;16.90;90.70;;;;;;5031712;28;20497;-66
2022/10/18 03:12:17;;;;;;;25.80;18.70;;;16.80;90.60;;;;;;5014393;28;20041;-67
2022/10/18 03:14:43;;;;;;;26.30;17.67;;;16.80;90.60;;;;;;5024819;28;20525;-66
2022/10/18 03:17:08;;;;;;;24.35;17.10;;;16.80;90.60;;;;;;5031749;28;20087;-66
2022/10/18 03:19:34;;;;;;;23.60;17.67;;;16.80;90.60;;;;;;5035205;28;20033;-66
2022/10/18 03:21:59;;;;;;;22.10;16.50;;;16.80;90.60;;;;;;5022651;28;20690;-66
2022/10/18 03:24:25;;;;;;;24.15;16.58;;;16.80;90.90;;;;;;5021471;28;20026;-66
2022/10/18 03:26:51;;;;;;;22.77;16.63;;;16.80;90.60;;;;;;5029842;28;20437;-66
2022/10/18 03:29:16;;;;;;;22.88;16.00;;;16.70;90.50;;;;;;5021997;28;20140;-66
2022/10/18 03:31:42;;;;;;;21.98;17.13;;;16.70;90.50;;;;;;5034689;28;20323;-67
2022/10/18 03:34:08;;;;;;;23.35;17.13;;;16.70;90.50;;;;;;5033861;28;20057;-67
2022/10/18 03:36:33;;;;;;;21.65;15.32;;;16.70;90.50;;;;;;5025022;28;20079;-67
2022/10/18 03:39:00;;;;;;;23.30;16.58;;;16.70;90.50;;;;;;5031001;28;20037;-66
2022/10/18 03:41:26;;;;;;;23.67;15.85;;;16.70;90.50;;;;;;5016577;28;20378;-66
2022/10/18 03:43:52;;;;;;;23.92;15.95;;;16.70;90.50;;;;;;5021730;28;20028;-67
2022/10/18 03:46:17;;;;;;;22.83;16.60;;;16.70;90.50;;;;;;5015382;28;20514;-67
2022/10/18 03:48:43;;;;;;;24.70;15.65;;;16.70;90.50;;;;;;5013663;28;20434;-66
2022/10/18 03:51:08;;;;;;;23.58;16.40;;;16.70;90.50;;;;;;5004658;28;20072;-66
2022/10/18 03:53:34;;;;;;;21.85;15.23;;;16.70;90.50;;;;;;4984924;28;20030;-67
2022/10/18 03:56:00;;;;;;;22.00;15.82;;;16.70;90.50;;;;;;4997400;28;20037;-66
2022/10/18 03:58:25;;;;;;;22.10;15.80;;;16.70;90.40;;;;;;4993565;28;20042;-66
2022/10/18 04:00:52;;;;;;;21.48;15.38;;;16.70;90.40;;;;;;4997025;28;20022;-66
2022/10/18 04:03:19;;;;;;;21.27;15.80;;;16.70;90.40;;;;;;5007294;28;20044;-66
2022/10/18 04:05:46;;;;;;;23.10;15.77;;;16.70;90.40;;;;;;5006991;28;20026;-66
2022/10/18 04:08:12;;;;;;;22.30;15.57;;;16.60;90.40;;;;;;5003824;28;20022;-66
2022/10/18 04:10:38;;;;;;;23.23;15.68;;;16.60;90.40;;;;;;4997637;28;20037;-66
2022/10/18 04:13:04;;;;;;;20.88;15.02;;;16.60;90.40;;;;;;4997231;28;20448;-66
2022/10/18 04:15:30;;;;;;;23.45;16.15;;;16.60;90.40;;;;;;4996746;28;20058;-66
2022/10/18 04:17:55;;;;;;;20.88;15.80;;;16.60;90.40;;;;;;5014818;28;20039;-66
2022/10/18 04:20:22;;;;;;;21.45;15.57;;;16.60;90.40;;;;;;4998727;28;20076;-66
2022/10/18 04:22:48;;;;;;;22.10;15.80;;;16.60;90.40;;;;;;4996082;28;20108;-66
2022/10/18 04:25:15;;;;;;;20.65;14.02;;;16.60;90.40;;;;;;4996284;28;20447;-66
2022/10/18 04:27:40;;;;;;;23.58;15.43;;;16.60;90.30;;;;;;4996684;28;20497;-67
2022/10/18 04:30:06;;;;;;;20.98;15.52;;;16.60;90.30;;;;;;4997196;28;20038;-66
2022/10/18 04:32:34;;;;;;;22.23;15.98;;;16.60;90.30;;;;;;4997776;28;20411;-67
2022/10/18 04:35:01;;;;;;;20.73;15.38;;;16.60;90.30;;;;;;4999848;28;20030;-67
2022/10/18 04:37:26;;;;;;;20.55;14.73;;;16.60;90.30;;;;;;5006570;28;20045;-66
2022/10/18 04:39:52;;;;;;;21.25;14.93;;;16.50;90.30;;;;;;5002585;28;20026;-66
2022/10/18 04:42:17;;;;;;;21.75;15.27;;;16.50;90.30;;;;;;5001788;28;20360;-66
2022/10/18 04:44:43;;;;;;;22.08;15.35;;;16.60;90.30;;;;;;5000820;28;20034;-66
2022/10/18 04:47:08;;;;;;;19.52;14.50;;;16.50;90.30;;;;;;5014231;28;20034;-68
2022/10/18 04:49:34;;;;;;;19.17;14.65;;;16.50;90.30;;;;;;5015436;28;20034;-67
2022/10/18 04:52:00;;;;;;;20.52;14.55;;;16.50;90.30;;;;;;5029897;28;20105;-67
2022/10/18 04:54:25;;;;;;;23.65;15.38;;;16.50;90.20;;;;;;5013619;28;20061;-67
2022/10/18 04:56:51;;;;;;;19.35;14.02;;;16.50;90.20;;;;;;5016054;28;20025;-67
2022/10/18 04:59:17;;;;;;;20.63;14.50;;;16.40;90.20;;;;;;5017192;28;20434;-67
2022/10/18 05:01:42;;;;;;;19.13;14.57;;;16.40;90.20;;;;;;5014283;28;20073;-67
2022/10/18 05:04:08;;;;;;;18.83;14.15;;;16.40;90.20;;;;;;5015418;28;20069;-67
2022/10/18 05:06:34;;;;;;;18.83;13.88;;;16.40;90.20;;;;;;5015694;28;20040;-67
2022/10/18 05:08:59;;;;;;;19.90;14.00;;;16.40;90.20;;;;;;5016546;28;20517;-67
2022/10/18 05:11:25;;;;;;;18.25;14.25;;;16.40;90.20;;;;;;5016456;28;20546;-67
2022/10/18 05:13:51;;;;;;;18.40;13.35;;;16.40;90.20;;;;;;5015387;28;20026;-66
2022/10/18 05:16:17;;;;;;;19.90;14.68;;;16.40;90.40;;;;;;5013515;28;20471;-66
2022/10/18 05:18:42;;;;;;;21.27;14.07;;;16.40;90.20;;;;;;5020465;28;20025;-67
2022/10/18 05:21:08;;;;;;;18.75;13.85;;;16.40;90.10;;;;;;5016303;28;20461;-68
2022/10/18 05:23:34;;;;;;;20.58;14.63;;;16.40;90.10;;;;;;5020309;28;20048;-67
2022/10/18 05:26:06;;;;;;;18.13;13.25;;;16.40;90.10;;;;;;5012202;28;20092;-67
2022/10/18 05:28:33;;;;;;;18.58;14.27;;;16.40;90.10;;;;;;5011811;28;20030;-68
2022/10/18 05:31:05;;;;;;;20.33;12.90;;;16.30;90.10;;;;;;5019296;28;20041;-67
2022/10/18 05:33:31;;;;;;;16.90;13.43;;;16.30;90.10;;;;;;5018861;28;20127;-67
2022/10/18 05:35:57;;;;;;;17.20;13.02;;;16.40;90.10;;;;;;5022052;28;20035;-67
2022/10/18 05:38:23;;;;;;;16.55;12.65;;;16.30;90.10;;;;;;5020840;28;20419;-67
2022/10/18 05:40:49;;;;;;;18.70;13.52;;;16.30;90.10;;;;;;5011836;28;20035;-67
2022/10/18 05:43:16;;;;;;;21.75;13.95;;;16.30;90.10;;;;;;5015287;28;20367;-67
2022/10/18 05:45:51;;;;;;;19.08;13.82;;;16.30;90.10;;;;;;5011580;28;20124;-67
2022/10/18 05:48:17;;;;;;;18.20;13.18;;;16.30;90.10;;;;;;5014483;28;20108;-67
2022/10/18 05:50:43;;;;;;;21.17;13.80;;;16.30;90.10;;;;;;5017173;28;20140;-68
2022/10/18 05:53:09;;;;;;;20.33;14.73;;;16.30;90.10;;;;;;5014217;28;20087;-68
2022/10/18 05:55:34;;;;;;;22.45;14.45;;;16.30;90.10;;;;;;5029823;28;20042;-69
2022/10/18 05:58:01;;;;;;;20.38;14.70;;;16.30;90.00;;;;;;5019488;28;20032;-69
2022/10/18 06:00:27;;;;;;;19.48;13.93;;;16.30;90.00;;;;;;5029014;28;20022;-68
2022/10/18 06:02:53;;;;;;;20.00;12.77;;;16.30;90.00;;;;;;5018910;28;20459;-70
2022/10/18 06:05:18;;;;;;;18.33;12.25;;;16.30;90.00;;;;;;5013971;28;20045;-68
2022/10/18 06:07:44;;;;;;;19.75;12.38;;;16.30;90.00;;;;;;5015557;28;20072;-67
2022/10/18 06:10:10;;;;;;;18.55;11.52;;;16.30;90.00;;;;;;5015622;28;20025;-67
2022/10/18 06:12:35;;;;;;;17.90;10.70;;;16.30;90.00;;;;;;5014169;28;20030;-67
2022/10/18 06:15:01;;;;;;;15.25;9.88;;;16.20;90.00;;;;;;5015272;28;20488;-67
2022/10/18 06:17:27;;;;;;;17.25;10.25;;;16.20;89.90;;;;;;5014317;28;20099;-67
2022/10/18 06:19:52;;;;;;;14.27;9.43;;;16.20;89.90;;;;;;5015081;28;20049;-68
2022/10/18 06:22:18;;;;;;;13.75;7.95;;;16.20;89.90;;;;;;5015989;28;20117;-67
2022/10/18 06:24:43;;;;;;;12.98;8.48;;;16.20;89.90;;;;;;5015201;28;20042;-68
2022/10/18 06:27:09;;;;;;;13.35;7.88;;;16.20;89.90;;;;;;5015215;28;20029;-67
2022/10/18 06:29:35;;;;;;;13.93;8.20;;;16.20;89.90;;;;;;5029011;28;20454;-67
2022/10/18 06:32:01;;;;;;;13.43;8.60;;;16.20;89.80;;;;;;5010663;28;20033;-67
2022/10/18 06:34:27;;;;;;;12.00;7.68;;;16.20;89.70;;;;;;5011395;28;20034;-67
2022/10/18 06:36:52;;;;;;;12.50;8.23;;;16.20;89.70;;;;;;5015848;28;20091;-68
2022/10/18 06:39:18;;;;;;;12.50;7.05;;;16.20;89.70;;;;;;5015237;28;20030;-67
2022/10/18 06:41:43;;;;;;;12.90;7.70;;;16.20;89.60;;;;;;5015084;28;20033;-67
2022/10/18 06:44:19;;;;;;;11.40;7.18;;;16.20;89.60;;;;;;5009564;28;20031;-67
2022/10/18 06:46:46;;;;;;;11.25;6.68;;;16.20;89.60;;;;;;5013739;28;20065;-67
2022/10/18 06:49:13;;;;;;;12.50;7.28;;;16.20;89.50;;;;;;5014173;28;20030;-67
2022/10/18 06:51:39;;;;;;;11.80;7.50;;;16.20;89.40;;;;;;5014115;28;20041;-67
2022/10/18 06:54:05;;;;;;;12.57;6.93;;;16.20;89.30;;;;;;5016080;28;20451;-67
2022/10/18 06:56:32;;;;;;;13.15;8.32;;;16.20;89.30;;;;;;5012412;28;20046;-67
2022/10/18 06:58:58;;;;;;;12.95;7.28;;;16.20;89.30;;;;;;4997294;28;20121;-67
2022/10/18 07:01:24;;;;;;;13.35;8.02;;;16.20;89.30;;;;;;5014337;28;20160;-67
2022/10/18 07:03:52;;;;;;;15.43;8.13;;;16.20;89.20;;;;;;5013291;28;20041;-67
2022/10/18 07:06:18;;;;;;;14.32;8.10;;;16.20;89.10;;;;;;5012074;28;20101;-67
2022/10/18 07:08:46;;;;;;;13.88;7.85;;;16.10;89.10;;;;;;5010586;28;20038;-69
2022/10/18 07:11:17;;;;;;;14.15;7.85;;;16.10;89.10;;;;;;5013982;28;20037;-67
2022/10/18 07:13:42;;;;;;;13.70;8.02;;;16.10;89.10;;;;;;5012861;28;20034;-67
2022/10/18 07:16:11;;;;;;;16.35;8.60;;;16.10;89.00;;;;;;5013971;28;20379;-67
2022/10/18 07:18:42;;;;;;;12.68;7.88;;;16.10;89.00;;;;;;5014204;28;20350;-66
2022/10/18 07:21:09;;;;;;;;;;;16.10;88.90;;;;;;5015108;28;20026;-68
2022/10/18 07:23:37;;;;;;;17.23;8.50;;;16.20;88.90;;;;;;5012340;28;19909;-67
2022/10/18 07:26:15;;;;;;;14.55;7.68;;;16.20;88.90;;;;;;5013184;28;20450;-67
2022/10/18 07:28:42;;;;;;;14.88;8.82;;;16.20;88.70;;;;;;5014208;28;20040;-67
2022/10/18 07:31:09;;;;;;;14.15;8.32;;;16.20;88.50;;;;;;5013919;28;20117;-68
2022/10/18 07:33:38;;;;;;;13.15;9.07;;;16.20;88.40;;;;;;5013932;28;20026;-67
2022/10/18 07:36:06;;;;;;;14.15;8.93;;;16.30;88.40;;;;;;5013340;28;20029;-67
2022/10/18 07:38:32;;;;;;;13.75;8.73;;;16.30;88.30;;;;;;5013717;28;20156;-67
2022/10/18 07:41:00;;;;;;;13.05;7.97;;;16.30;88.10;;;;;;5014425;28;20025;-67
2022/10/18 07:43:26;;;;;;;13.00;7.80;;;16.30;88.00;;;;;;5014779;28;20435;-67
2022/10/18 07:45:54;;;;;;;13.52;8.23;;;16.30;88.00;;;;;;5012217;28;20083;-67
2022/10/18 07:48:19;;;;;;;13.95;7.85;;;16.30;87.90;;;;;;5013351;28;20033;-67
2022/10/18 07:50:45;;;;;;;12.98;8.07;;;16.30;87.90;;;;;;5014024;28;20099;-67
2022/10/18 07:53:11;;;;;;;14.45;7.68;;;16.30;87.80;;;;;;5010238;28;20026;-67
2022/10/18 07:55:36;;;;;;;10.88;6.63;;;16.30;87.80;;;;;;5013130;28;20030;-67
2022/10/18 07:58:02;;;;;;;11.90;7.32;;;16.30;87.70;;;;;;5014240;28;20030;-67
2022/10/18 08:00:28;;;;;;;13.00;7.47;;;16.30;87.60;;;;;;5012737;28;20324;-67
2022/10/18 08:02:57;;;;;;;14.40;6.57;;;16.40;87.60;;;;;;5012655;28;20042;-67
2022/10/18 08:05:25;;;;;;;12.93;7.10;;;16.40;87.40;;;;;;5014184;28;20032;-67
2022/10/18 08:07:51;;;;;;;12.43;6.88;;;16.40;87.40;;;;;;5009147;28;20026;-67
2022/10/18 08:10:17;;;;;;;12.20;6.85;;;16.40;87.20;;;;;;5011201;28;20038;-67
2022/10/18 08:12:43;;;;;;;13.57;6.97;;;16.50;87.10;;;;;;5013400;28;20044;-67
2022/10/18 08:15:09;;;;;;;12.13;7.07;;;16.50;87.00;;;;;;5018185;28;20044;-67
2022/10/18 08:17:34;;;;;;;11.77;7.25;;;16.60;86.90;;;;;;5018218;28;20034;-66
2022/10/18 08:20:00;;;;;;;12.65;5.75;;;16.60;86.80;;;;;;5016721;28;20041;-67
2022/10/18 08:22:25;;;;;;;13.00;6.47;;;16.70;86.70;;;;;;5017198;28;20030;-67
2022/10/18 08:24:51;;;;;;;12.75;5.88;;;16.80;86.50;;;;;;5017752;28;20080;-67
2022/10/18 08:27:17;;;;;;;12.82;6.85;;;16.90;86.40;;;;;;5016656;28;20339;-67
2022/10/18 08:29:42;;;;;;;12.25;6.00;;;16.90;86.20;;;;;;5016699;28;20038;-66
2022/10/18 08:32:08;;;;;;;11.35;5.70;;;17.00;86.00;;;;;;5032949;28;20049;-66
2022/10/18 08:34:34;;;;;;;10.88;5.57;;;17.10;85.80;;;;;;5016330;28;20378;-66
2022/10/18 08:37:01;;;;;;;10.73;5.78;;;17.20;85.70;;;;;;5016859;28;20137;-66
2022/10/18 08:39:26;;;;;;;8.80;5.07;;;17.30;85.40;;;;;;5015665;28;20120;-67
2022/10/18 08:42:13;;;;;;;9.65;5.20;;;17.50;85.10;;;;;;5017604;28;20407;-66
2022/10/18 08:44:49;;;;;;;9.45;4.72;;;17.70;84.70;;;;;;5017228;28;20021;-66
2022/10/18 08:47:21;;;;;;;11.60;4.53;;;17.80;84.00;;;;;;5017003;28;20029;-66
2022/10/18 08:50:00;;;;;;;10.63;4.50;;;18.00;83.60;;;;;;5015951;28;20461;-66
2022/10/18 08:52:44;;;;;;;11.40;4.22;;;18.20;83.10;;;;;;5017003;28;20113;-66
2022/10/18 08:55:13;;;;;;;9.15;4.25;;;18.30;82.60;;;;;;4999457;28;20133;-67
2022/10/18 08:57:38;;;;;;;8.82;4.68;;;18.50;82.10;;;;;;5016692;28;20424;-66
2022/10/18 09:00:18;;;;;;;11.63;4.30;;;18.50;81.80;;;;;;5016425;28;20080;-66
2022/10/18 09:03:08;;;;;;;10.57;4.10;;;18.70;81.50;;;;;;5017294;28;20363;-66
2022/10/18 09:05:47;;;;;;;11.02;4.38;;;18.80;81.10;;;;;;5016687;28;20037;-66
2022/10/18 09:08:27;;;;;;;13.63;4.60;;;18.90;80.80;;;;;;5013844;28;20029;-67
2022/10/18 09:11:23;;;;;;;11.30;4.15;;;19.00;80.50;;;;;;5016017;28;20076;-66
2022/10/18 09:14:13;;;;;;;8.43;3.90;;;19.00;79.90;;;;;;5032073;28;20155;-67
2022/10/18 09:16:51;;;;;;;9.55;3.42;;;19.10;79.80;;;;;;5015725;28;20057;-67
2022/10/18 09:19:36;;;;;;;9.13;3.20;;;19.10;79.30;;;;;;5023259;28;20072;-67
2022/10/18 09:22:09;;;;;;;9.68;3.20;;;19.20;78.90;;;;;;5025711;28;20021;-67
2022/10/18 09:25:01;;;;;;;10.85;3.05;;;19.30;78.60;;;;;;5026195;28;20030;-67
2022/10/18 09:27:40;;;;;;;10.55;2.78;;;19.40;78.90;;;;;;5022500;28;20064;-67
2022/10/18 09:30:21;;;;;;;9.80;2.92;;;19.50;78.00;;;;;;5026799;28;20033;-67
2022/10/18 09:33:11;;;;;;;10.10;2.58;;;19.50;77.60;;;;;;5027858;28;20040;-67
2022/10/18 09:35:46;;;;;;;8.50;2.50;;;19.60;77.50;;;;;;5012651;28;20038;-65
2022/10/18 09:38:15;;;;;;;7.07;2.15;;;19.70;77.10;;;;;;5027602;28;20413;-67
2022/10/18 09:40:57;;;;;;;6.00;2.25;;;19.80;76.60;;;;;;5026783;28;20083;-65
2022/10/18 09:43:31;;;;;;;8.32;1.90;;;19.80;75.90;;;;;;4999133;28;20419;-65
2022/10/18 09:45:56;;;;;;;6.60;1.98;;;20.00;75.70;;;;;;5011112;28;20053;-66
2022/10/18 09:48:26;;;;;;;6.55;1.95;;;20.00;75.20;;;;;;5005122;28;20064;-65
2022/10/18 09:51:23;;;;;;;7.90;2.00;;;20.20;74.60;;;;;;5015525;28;20084;-65
2022/10/18 09:54:08;;;;;;;6.28;2.05;;;20.30;73.90;;;;;;5018175;28;20050;-65
2022/10/18 09:56:37;;;;;;;7.88;1.80;;;20.30;73.60;;;;;;5015064;28;20041;-65
2022/10/18 09:59:03;;;;;;;10.35;2.17;;;20.40;73.30;;;;;;5025674;28;20056;-65
2022/10/18 10:01:31;;;;;;;8.43;2.05;;;20.50;73.10;;;;;;5023454;28;20119;-65
2022/10/18 10:03:56;;;;;;;7.05;1.90;;;20.60;72.80;;;;;;5030044;28;20033;-65
2022/10/18 10:06:30;;;;;;;6.40;1.75;;;20.60;72.30;;;;;;5032979;28;20021;-65
2022/10/18 10:09:05;;;;;;;7.88;1.73;;;20.70;71.70;;;;;;5043308;28;20041;-65
2022/10/18 10:11:36;;;;;;;6.88;2.13;;;20.70;71.70;;;;;;5015066;28;20034;-65
2022/10/18 10:14:26;;;;;;;5.28;1.77;;;20.80;71.50;;;;;;5015323;28;20022;-65
2022/10/18 10:16:56;;;;;;;7.22;2.03;;;20.80;70.80;;;;;;5016225;28;20046;-66
2022/10/18 10:19:39;;;;;;;6.38;1.92;;;20.90;70.90;;;;;;5017108;28;20037;-65
2022/10/18 10:22:09;;;;;;;7.55;1.83;;;21.00;70.10;;;;;;5015857;28;20439;-65
2022/10/18 10:24:53;;;;;;;5.15;1.40;;;21.00;70.00;;;;;;4996130;28;20045;-65
2022/10/18 10:27:21;;;;;;;5.88;1.65;;;21.10;69.10;;;;;;5022758;28;20052;-65
2022/10/18 10:29:46;;;;;;;7.18;1.75;;;21.10;68.80;;;;;;5032141;28;20044;-65
2022/10/18 10:32:13;;;;;;;4.85;1.60;;;21.20;68.70;;;;;;5028148;28;20374;-66
2022/10/18 10:34:42;;;;;;;7.00;1.90;;;21.20;68.50;;;;;;5036317;28;20021;-66
2022/10/18 10:37:30;;;;;;;7.82;1.73;;;21.30;68.40;;;;;;5025510;28;20032;-65
2022/10/18 10:40:20;;;;;;;7.30;2.13;;;21.30;68.10;;;;;;5021421;28;20835;-65
2022/10/18 10:43:05;;;;;;;9.43;1.98;;;21.30;67.70;;;;;;5017410;28;20454;-66
2022/10/18 10:45:37;;;;;;;5.18;1.30;;;21.40;67.60;;;;;;5031905;28;20044;-65
2022/10/18 10:48:16;;;;;;;7.10;1.42;;;21.40;67.10;;;;;;5026061;28;20067;-65
2022/10/18 10:51:06;;;;;;;6.68;1.50;;;21.40;66.60;;;;;;5021641;28;20098;-65
2022/10/18 10:53:38;;;;;;;5.43;1.60;;;21.40;65.80;;;;;;5025349;28;20033;-65
2022/10/18 10:56:05;;;;;;;5.65;1.40;;;21.30;65.60;;;;;;5007030;28;20065;-66
2022/10/18 10:58:39;;;;;;;5.63;1.73;;;21.30;65.40;;;;;;5025313;28;20033;-66
2022/10/18 11:01:19;;;;;;;6.70;1.33;;;21.30;65.10;;;;;;5025325;28;20426;-66
2022/10/18 11:03:47;;;;;;;6.68;1.75;;;21.30;64.80;;;;;;5018887;28;20442;-66
2022/10/18 11:06:57;;;;;;;5.45;1.23;;;21.30;65.40;;;;;;5031055;28;20026;-66
2022/10/18 11:09:50;;;;;;;7.28;1.60;;;21.30;64.40;;;;;;5009647;28;20034;-66
2022/10/18 11:12:36;;;;;;;4.55;1.83;;;21.30;64.60;;;;;;5010821;28;20041;-66
2022/10/18 11:15:08;;;;;;;4.60;1.45;;;21.30;64.40;;;;;;5013427;28;20050;-66
2022/10/18 11:18:03;;;;;;;6.07;1.77;;;21.30;64.30;;;;;;5014106;28;20124;-66
2022/10/18 11:21:06;;;;;;;7.93;1.75;;;21.30;64.00;;;;;;5013448;28;20129;-66
2022/10/18 11:23:35;;;;;;;5.38;1.30;;;21.20;63.80;;;;;;5015973;28;20061;-66
2022/10/18 11:26:06;;;;;;;5.43;1.42;;;21.20;63.90;;;;;;5014154;28;20443;-66
2022/10/18 11:28:40;;;;;;;8.02;1.30;;;21.20;63.50;;;;;;5013510;28;20034;-66
2022/10/18 11:31:32;;;;;;;5.47;1.30;;;21.20;63.30;;;;;;5012479;28;20083;-66
2022/10/18 11:34:35;;;;;;;4.50;1.50;;;21.20;63.00;;;;;;5005353;28;20091;-66
2022/10/18 11:37:29;;;;;;;5.88;1.48;;;21.20;63.10;;;;;;5008877;28;20109;-66
2022/10/18 11:40:28;;;;;;;5.00;1.40;;;21.10;62.50;;;;;;5016276;28;20017;-66
2022/10/18 11:43:03;;;;;;;4.15;1.38;;;21.20;62.60;;;;;;5009918;28;20337;-66
2022/10/18 11:45:37;;;;;;;5.22;1.50;;;21.10;62.60;;;;;;5013168;28;20462;-66
2022/10/18 11:48:29;;;;;;;4.22;1.33;;;21.10;62.40;;;;;;5015138;28;20032;-66
2022/10/18 11:51:28;;;;;;;11.77;1.58;;;21.10;61.50;;;;;;5012685;28;20026;-65
2022/10/18 11:54:21;;;;;;;3.95;1.58;;;21.10;61.70;;;;;;5007477;28;20511;-66
2022/10/18 11:56:55;;;;;;;6.35;1.58;;;21.10;62.00;;;;;;5017149;28;20033;-66
2022/10/18 11:59:26;;;;;;;7.38;1.35;;;21.00;61.70;;;;;;5029607;28;20049;-66
2022/10/18 12:02:11;;;;;;;6.35;1.40;;;21.00;61.60;;;;;;5007680;28;20034;-66
2022/10/18 12:04:44;;;;;;;9.32;1.75;;;20.90;61.40;;;;;;5009845;28;20110;-66
2022/10/18 12:07:14;;;;;;;8.18;2.05;;;20.80;61.40;;;;;;5024788;28;20095;-66
2022/10/18 12:09:46;;;;;;;6.28;1.48;;;20.80;61.30;;;;;;5008288;28;20465;-66
2022/10/18 12:12:30;;;;;;;5.03;1.67;;;20.70;61.30;;;;;;5025336;28;20048;-65
2022/10/18 12:14:58;;;;;;;6.03;1.55;;;20.70;61.30;;;;;;5025462;28;20361;-66
2022/10/18 12:17:29;;;;;;;5.45;1.58;;;20.60;61.20;;;;;;5007383;28;20034;-66
2022/10/18 12:19:58;;;;;;;7.38;1.67;;;20.60;60.80;;;;;;5028620;28;20087;-66
2022/10/18 12:22:41;;;;;;;5.45;1.50;;;20.60;60.90;;;;;;5023570;28;20022;-66
2022/10/18 12:25:12;;;;;;;7.35;1.48;;;20.50;60.80;;;;;;5029002;28;20108;-66
2022/10/18 12:27:59;;;;;;;6.40;1.50;;;20.40;60.90;;;;;;5028685;28;20029;-66
2022/10/18 12:30:43;;;;;;;3.30;1.30;;;20.40;60.90;;;;;;5020676;28;20466;-66
2022/10/18 12:33:15;;;;;;;5.57;1.40;;;20.30;60.70;;;;;;5027637;28;20022;-66
2022/10/18 12:36:15;;;;;;;5.90;1.35;;;20.30;60.90;;;;;;5018312;28;20030;-66
2022/10/18 12:38:45;;;;;;;8.43;1.63;;;20.20;60.80;;;;;;5031474;28;20030;-65
2022/10/18 12:41:32;;;;;;;4.88;1.48;;;20.10;61.10;;;;;;5014391;28;20493;-66
2022/10/18 12:44:06;;;;;;;10.65;1.65;;;20.10;61.30;;;;;;5002679;28;20040;-66
2022/10/18 12:46:47;;;;;;;4.05;1.20;;;20.00;61.30;;;;;;5022399;28;20035;-66
2022/10/18 12:49:16;;;;;;;7.28;2.20;;;19.90;61.00;;;;;;5014541;28;20038;-66
2022/10/18 12:51:51;;;;;;;6.75;1.27;;;19.80;61.00;;;;;;5013766;28;20525;-66
2022/10/18 12:54:24;;;;;;;5.75;1.38;;;19.80;60.70;;;;;;5004955;28;20335;-66
2022/10/18 12:56:49;;;;;;;4.75;1.52;;;19.70;60.70;;;;;;5022376;28;20040;-65